KDSM/DSM METAR and TAF weather

Enter ICAO airport designator
Station Type Date Time Source
KDSM METAR 2018/12/10 18:54 UTC NOAA

KDSM 101854Z 24012KT 10SM CLR 01/M06 A3024 RMK AO2 SLP251 T00111056


Station Type Date Time Source
KDSM Decoded METAR 2018/12/10 18:54 UTC NOAA

DES MOINES INTERNATIONAL, IA, United States (KDSM) 41-32N 93-40W 295M
Dec 10, 2018 - 01:54 PM EST / 2018.12.10 1854 UTC
Wind: from the WSW (240 degrees) at 14 MPH (12 KT):0
Visibility: 10 mile(s):0
Sky conditions: clear
Temperature: 34.0 F (1.1 C)
Windchill: 24 F (-4 C):1
Dew Point: 21.9 F (-5.6 C)
Relative Humidity: 60%
Pressure (altimeter): 30.24 in. Hg (1024 hPa)
ob: KDSM 101854Z 24012KT 10SM CLR 01/M06 A3024 RMK AO2 SLP251 T00111056
cycle: 19

Station Type Date Time Source
KDSM TAF 2018/12/10 18:33 UTC NOAA

TAF KDSM 101731Z 1018/1118 25008KT P6SM FEW250
FM110100 22007KT P6SM SKC
FM111600 25006KT P6SM BKN200


Example: see airport list